createdAt,value
2019-01-12T00:01:32.074Z,6.70
2019-01-12T00:04:00.873Z,6.70
2019-01-12T00:06:29.609Z,6.80
2019-01-12T00:08:58.618Z,6.80
2019-01-12T00:11:27.344Z,6.70
2019-01-12T00:13:56.076Z,6.80
2019-01-12T00:16:24.829Z,6.70
2019-01-12T00:18:53.626Z,6.70
2019-01-12T00:21:22.323Z,6.80
2019-01-12T00:23:51.021Z,6.80
2019-01-12T00:26:19.941Z,6.80
2019-01-12T00:28:48.873Z,6.80
2019-01-12T00:31:17.803Z,6.80
2019-01-12T00:33:46.657Z,6.70
2019-01-12T00:36:15.553Z,6.80
2019-01-12T00:38:44.381Z,6.80
2019-01-12T00:41:13.786Z,6.80
2019-01-12T00:43:42.681Z,6.80
2019-01-12T00:46:11.626Z,6.70
2019-01-12T00:48:40.545Z,6.70
2019-01-12T00:51:09.256Z,6.70
2019-01-12T00:53:38.039Z,6.70
2019-01-12T00:56:06.833Z,6.70
2019-01-12T00:58:35.557Z,6.70
2019-01-12T01:01:04.589Z,6.70
2019-01-12T01:03:33.292Z,6.70
2019-01-12T01:06:02.026Z,6.60
2019-01-12T01:08:30.743Z,6.60
2019-01-12T01:10:59.584Z,6.60
2019-01-12T01:13:28.424Z,6.60
2019-01-12T01:15:57.157Z,6.60
2019-01-12T01:18:25.989Z,6.60
2019-01-12T01:20:54.629Z,6.60
2019-01-12T01:23:23.414Z,6.60
2019-01-12T01:25:52.200Z,6.70
2019-01-12T01:28:20.929Z,6.60
2019-01-12T01:30:49.667Z,6.70
2019-01-12T01:33:18.486Z,6.70
2019-01-12T01:35:47.257Z,6.70
2019-01-12T01:38:16.041Z,6.70
2019-01-12T01:40:44.884Z,6.70
2019-01-12T01:43:13.614Z,6.60
2019-01-12T01:45:42.403Z,6.70
2019-01-12T01:48:11.145Z,6.60
2019-01-12T01:50:40.055Z,6.60
2019-01-12T01:53:08.911Z,6.60
2019-01-12T01:55:37.920Z,6.50
2019-01-12T01:58:07.865Z,6.50
2019-01-12T02:00:36.590Z,6.50
2019-01-12T02:03:05.403Z,6.50
2019-01-12T02:05:34.235Z,6.60
2019-01-12T02:08:02.947Z,6.50
2019-01-12T02:10:31.672Z,6.60
2019-01-12T02:13:00.458Z,6.50
2019-01-12T02:15:29.318Z,6.50
2019-01-12T02:17:58.083Z,6.50
2019-01-12T02:20:26.841Z,6.50
2019-01-12T02:22:55.593Z,6.40
2019-01-12T02:25:24.448Z,6.50
2019-01-12T02:27:53.434Z,6.50
2019-01-12T02:30:23.884Z,6.50
2019-01-12T02:32:52.806Z,6.40
2019-01-12T02:35:21.755Z,6.40
2019-01-12T02:37:50.600Z,6.40
2019-01-12T02:40:19.384Z,6.40
2019-01-12T02:42:48.390Z,6.30
2019-01-12T02:45:17.063Z,6.40
2019-01-12T02:47:45.941Z,6.40
2019-01-12T02:50:14.866Z,6.40
2019-01-12T02:52:43.869Z,6.40
2019-01-12T02:55:12.556Z,6.40
2019-01-12T02:57:41.276Z,6.40
2019-01-12T03:00:13.293Z,6.40
2019-01-12T03:02:42.190Z,6.40
2019-01-12T03:05:10.953Z,6.30
2019-01-12T03:07:39.700Z,6.40
2019-01-12T03:10:09.829Z,6.30
2019-01-12T03:12:38.504Z,6.40
2019-01-12T03:15:08.877Z,6.40
2019-01-12T03:17:37.635Z,6.40
2019-01-12T03:20:08.246Z,6.40
2019-01-12T03:22:36.999Z,6.30
2019-01-12T03:25:06.239Z,6.30
2019-01-12T03:27:35.004Z,6.30
2019-01-12T03:30:04.595Z,6.30
2019-01-12T03:32:33.430Z,6.40
2019-01-12T03:35:08.472Z,6.30
2019-01-12T03:37:37.275Z,6.30
2019-01-12T03:40:07.719Z,6.30
2019-01-12T03:42:36.520Z,6.30
2019-01-12T03:45:06.365Z,6.30
2019-01-12T03:47:35.139Z,6.30
2019-01-12T03:50:04.719Z,6.30
2019-01-12T03:52:33.449Z,6.30
2019-01-12T03:55:02.187Z,6.30
2019-01-12T03:57:30.988Z,6.30
2019-01-12T03:59:59.767Z,6.30
2019-01-12T04:02:28.644Z,6.30
2019-01-12T04:04:57.383Z,6.30
2019-01-12T04:07:26.139Z,6.30
2019-01-12T04:09:54.925Z,6.30
2019-01-12T04:12:23.746Z,6.30
2019-01-12T04:14:52.499Z,6.30
2019-01-12T04:17:21.553Z,6.30
2019-01-12T04:19:50.374Z,6.30
2019-01-12T04:22:19.265Z,6.30
2019-01-12T04:24:48.174Z,6.20
2019-01-12T04:27:17.010Z,6.20
2019-01-12T04:29:45.881Z,6.20
2019-01-12T04:32:14.669Z,6.20
2019-01-12T04:34:43.428Z,6.10
2019-01-12T04:37:12.367Z,6.10
2019-01-12T04:39:41.176Z,6.20
2019-01-12T04:42:10.002Z,6.10
2019-01-12T04:44:38.754Z,6.10
2019-01-12T04:47:07.477Z,6.20
2019-01-12T04:49:36.255Z,6.20
2019-01-12T04:52:04.946Z,6.20
2019-01-12T04:54:33.663Z,6.20
2019-01-12T04:57:02.336Z,6.20
2019-01-12T04:59:31.080Z,6.20
2019-01-12T05:01:59.771Z,6.20
2019-01-12T05:04:28.508Z,6.20
2019-01-12T05:06:57.190Z,6.20
2019-01-12T05:09:25.916Z,6.20
2019-01-12T05:11:54.642Z,6.20
2019-01-12T05:14:23.465Z,6.20
2019-01-12T05:16:52.261Z,6.20
2019-01-12T05:19:21.023Z,6.10
2019-01-12T05:21:49.754Z,6.20
2019-01-12T05:24:18.494Z,6.20
2019-01-12T05:26:47.191Z,6.10
2019-01-12T05:29:15.973Z,6.20
2019-01-12T05:31:44.777Z,6.10
2019-01-12T05:34:13.577Z,6.10
2019-01-12T05:36:42.398Z,6.20
2019-01-12T05:39:11.094Z,6.20
2019-01-12T05:41:39.975Z,6.10
2019-01-12T05:44:08.725Z,6.10
2019-01-12T05:46:37.409Z,6.10
2019-01-12T05:49:06.209Z,6.10
2019-01-12T05:51:34.960Z,6.10
2019-01-12T05:54:03.745Z,6.10
2019-01-12T05:56:32.594Z,6.10
2019-01-12T05:59:01.451Z,6.10
2019-01-12T06:01:30.191Z,6.10
2019-01-12T06:03:58.943Z,6.10
2019-01-12T06:06:27.664Z,6.10
2019-01-12T06:08:56.374Z,6.10
2019-01-12T06:11:25.127Z,6.10
2019-01-12T06:13:53.852Z,6.10
2019-01-12T06:16:22.568Z,6.10
2019-01-12T06:18:51.337Z,6.10
2019-01-12T06:21:20.181Z,6.10
2019-01-12T06:23:48.886Z,6.20
2019-01-12T06:26:17.598Z,6.10
2019-01-12T06:28:46.325Z,6.10
2019-01-12T06:31:15.141Z,6.10
2019-01-12T06:33:43.866Z,6.00
2019-01-12T06:36:12.668Z,6.10
2019-01-12T06:38:41.394Z,6.00
2019-01-12T06:41:10.213Z,6.10
2019-01-12T06:43:39.021Z,6.00
2019-01-12T06:46:07.736Z,6.10
2019-01-12T06:48:36.464Z,6.10
2019-01-12T06:51:05.220Z,6.00
2019-01-12T06:53:33.935Z,6.00
2019-01-12T06:56:02.643Z,6.00
2019-01-12T06:58:31.335Z,6.10
2019-01-12T07:01:00.038Z,6.10
2019-01-12T07:03:28.782Z,6.00
2019-01-12T07:05:57.524Z,6.00
2019-01-12T07:08:26.415Z,6.00
2019-01-12T07:10:55.177Z,6.00
2019-01-12T07:13:23.891Z,6.00
2019-01-12T07:15:52.626Z,6.00
2019-01-12T07:18:21.401Z,6.00
2019-01-12T07:20:50.182Z,6.10
2019-01-12T07:23:18.887Z,6.10
2019-01-12T07:25:47.598Z,6.00
2019-01-12T07:28:16.323Z,6.10
2019-01-12T07:30:45.082Z,6.10
2019-01-12T07:33:13.800Z,6.00
2019-01-12T07:35:53.567Z,6.10
2019-01-12T07:38:22.358Z,6.10
2019-01-12T07:40:51.070Z,6.10
2019-01-12T07:43:19.805Z,6.10
2019-01-12T07:45:48.531Z,6.10
2019-01-12T07:48:17.261Z,6.10
2019-01-12T07:50:46.015Z,6.10
2019-01-12T07:53:14.700Z,6.10
2019-01-12T07:55:43.489Z,6.00
2019-01-12T07:58:14.822Z,6.10
2019-01-12T08:00:49.138Z,6.00
2019-01-12T08:03:17.971Z,6.00
2019-01-12T08:05:46.680Z,6.10
2019-01-12T08:08:15.447Z,6.10
2019-01-12T08:10:44.221Z,6.20
2019-01-12T08:13:13.206Z,6.20
2019-01-12T08:15:42.007Z,6.20
2019-01-12T08:18:10.870Z,6.20
2019-01-12T08:20:39.652Z,6.20
2019-01-12T08:23:08.420Z,6.10
2019-01-12T08:25:37.127Z,6.20
2019-01-12T08:28:06.181Z,6.20
2019-01-12T08:30:35.018Z,6.20
2019-01-12T08:33:03.870Z,6.10
2019-01-12T08:35:32.596Z,6.10
2019-01-12T08:38:01.378Z,6.10
2019-01-12T08:40:30.076Z,6.10
2019-01-12T08:42:58.872Z,6.10
2019-01-12T08:45:27.655Z,6.10
2019-01-12T08:47:56.345Z,6.20
2019-01-12T08:50:25.166Z,6.10
2019-01-12T08:52:53.963Z,6.10
2019-01-12T08:55:22.713Z,6.10
2019-01-12T08:57:51.540Z,6.10
2019-01-12T09:00:21.766Z,6.10
2019-01-12T09:02:50.533Z,6.10
2019-01-12T09:05:19.327Z,6.20
2019-01-12T09:07:48.078Z,6.20
2019-01-12T09:10:19.636Z,6.20
2019-01-12T09:12:48.670Z,6.20
2019-01-12T09:15:17.523Z,6.20
2019-01-12T09:17:46.256Z,6.30
2019-01-12T09:20:15.091Z,6.20
2019-01-12T09:22:43.903Z,6.20
2019-01-12T09:25:13.560Z,6.10
2019-01-12T09:27:42.431Z,6.10
2019-01-12T09:30:13.997Z,6.10
2019-01-12T09:32:42.718Z,6.20
2019-01-12T09:35:11.463Z,6.10
2019-01-12T09:37:40.256Z,6.10
2019-01-12T09:40:11.318Z,6.20
2019-01-12T09:42:40.193Z,6.10
2019-01-12T09:45:09.762Z,6.10
2019-01-12T09:47:38.881Z,6.10
2019-01-12T09:50:09.744Z,6.20
2019-01-12T09:52:38.723Z,6.20
2019-01-12T09:55:07.561Z,6.10
2019-01-12T09:57:36.375Z,6.00
2019-01-12T10:00:08.223Z,6.00
2019-01-12T10:02:37.167Z,5.90
2019-01-12T10:05:06.477Z,6.00
2019-01-12T10:07:35.483Z,6.00
2019-01-12T10:10:05.402Z,6.00
2019-01-12T10:12:34.566Z,6.00
2019-01-12T10:15:03.763Z,6.00
2019-01-12T10:17:32.880Z,6.00
2019-01-12T10:20:01.851Z,6.00
2019-01-12T10:22:30.685Z,6.00
2019-01-12T10:24:59.477Z,6.00
2019-01-12T10:27:28.337Z,6.00
2019-01-12T10:29:57.261Z,6.10
2019-01-12T10:32:26.190Z,6.10
2019-01-12T10:34:55.003Z,6.00
2019-01-12T10:37:23.764Z,6.00
2019-01-12T10:39:52.513Z,6.00
2019-01-12T10:42:21.269Z,6.00
2019-01-12T10:44:50.013Z,6.10
2019-01-12T10:47:18.742Z,6.00
2019-01-12T10:49:47.500Z,6.00
2019-01-12T10:52:16.210Z,6.00
2019-01-12T10:54:45.202Z,6.00
2019-01-12T10:57:13.911Z,6.00
2019-01-12T10:59:42.735Z,6.10
2019-01-12T11:02:11.483Z,6.10
2019-01-12T11:04:40.407Z,6.10
2019-01-12T11:07:11.939Z,6.20
2019-01-12T11:09:40.691Z,6.10
2019-01-12T11:12:09.537Z,6.10
2019-01-12T11:14:38.457Z,6.10
2019-01-12T11:17:07.422Z,6.20
2019-01-12T11:19:36.107Z,6.20
2019-01-12T11:22:04.826Z,6.20
2019-01-12T11:24:33.798Z,6.30
2019-01-12T11:27:02.626Z,6.20
2019-01-12T11:29:31.384Z,6.30
2019-01-12T11:32:00.255Z,6.30
2019-01-12T11:34:28.987Z,6.30
2019-01-12T11:36:57.701Z,6.30
2019-01-12T11:39:26.621Z,6.20
2019-01-12T11:41:55.411Z,6.30
2019-01-12T11:44:24.137Z,6.20
2019-01-12T11:46:52.991Z,6.20
2019-01-12T11:49:21.692Z,6.20
2019-01-12T11:51:50.775Z,6.30
2019-01-12T11:54:19.934Z,6.20
2019-01-12T11:56:48.618Z,6.30
2019-01-12T11:59:17.426Z,6.30
2019-01-12T12:01:46.431Z,6.20
2019-01-12T12:04:15.171Z,6.20
2019-01-12T12:06:43.894Z,6.30
2019-01-12T12:09:13.037Z,6.30
2019-01-12T12:11:42.181Z,6.20
2019-01-12T12:14:10.919Z,6.20
2019-01-12T12:16:39.829Z,6.10
2019-01-12T12:19:08.977Z,6.10
2019-01-12T12:21:38.160Z,6.10
2019-01-12T12:24:07.228Z,6.20
2019-01-12T12:26:36.085Z,6.20
2019-01-12T12:29:05.087Z,6.20
2019-01-12T12:31:34.185Z,6.30
2019-01-12T12:34:03.031Z,6.30
2019-01-12T12:36:31.879Z,6.30
2019-01-12T12:39:00.783Z,6.30
2019-01-12T12:41:30.165Z,6.30
2019-01-12T12:43:59.103Z,6.20
2019-01-12T12:46:27.864Z,6.20
2019-01-12T12:48:56.709Z,6.20
2019-01-12T12:51:25.697Z,6.30
2019-01-12T12:53:54.409Z,6.30
2019-01-12T12:56:23.177Z,6.30
2019-01-12T12:58:51.886Z,6.30
2019-01-12T13:01:20.804Z,6.30
2019-01-12T13:03:49.870Z,6.30
2019-01-12T13:06:18.665Z,6.30
2019-01-12T13:08:48.553Z,6.40
2019-01-12T13:11:17.615Z,6.30
2019-01-12T13:13:46.477Z,6.30
2019-01-12T13:16:15.257Z,6.30
2019-01-12T13:18:45.502Z,6.40
2019-01-12T13:21:14.270Z,6.40
2019-01-12T13:23:46.237Z,6.40
2019-01-12T13:26:15.102Z,6.40
2019-01-12T13:28:43.917Z,6.50
2019-01-12T13:31:12.639Z,6.50
2019-01-12T13:33:41.461Z,6.50
2019-01-12T13:36:10.360Z,6.60
2019-01-12T13:38:39.131Z,6.50
2019-01-12T13:41:07.900Z,6.60
2019-01-12T13:43:36.723Z,6.60
2019-01-12T13:46:05.494Z,6.60
2019-01-12T13:48:34.337Z,6.60
2019-01-12T13:51:03.120Z,6.70
2019-01-12T13:53:31.902Z,6.70
2019-01-12T13:56:00.953Z,6.70
2019-01-12T13:58:29.742Z,6.70
2019-01-12T14:00:58.582Z,6.80
2019-01-12T14:03:27.299Z,6.80
2019-01-12T14:05:56.094Z,6.80
2019-01-12T14:08:24.893Z,6.90
2019-01-12T14:10:53.735Z,6.90
2019-01-12T14:13:22.603Z,6.90
2019-01-12T14:15:51.471Z,7.00
2019-01-12T14:18:22.751Z,6.90
2019-01-12T14:20:51.491Z,7.00
2019-01-12T14:23:20.439Z,6.90
2019-01-12T14:25:49.268Z,7.00
2019-01-12T14:28:17.980Z,6.90
2019-01-12T14:30:46.787Z,7.00
2019-01-12T14:33:15.489Z,7.00
2019-01-12T14:35:44.226Z,7.00
2019-01-12T14:38:12.969Z,6.90
2019-01-12T14:40:41.751Z,6.90
2019-01-12T14:43:10.439Z,6.90
2019-01-12T14:45:39.449Z,6.90
2019-01-12T14:48:11.067Z,6.90
2019-01-12T14:50:39.890Z,7.00
2019-01-12T14:53:15.244Z,6.90
2019-01-12T14:55:45.452Z,6.90
2019-01-12T14:58:14.185Z,7.00
2019-01-12T15:00:42.966Z,6.90
2019-01-12T15:03:11.683Z,7.00
2019-01-12T15:05:40.502Z,7.10
2019-01-12T15:08:09.629Z,7.00
2019-01-12T15:10:41.372Z,7.10
2019-01-12T15:13:10.419Z,7.10
2019-01-12T15:15:42.368Z,7.10
2019-01-12T15:18:12.342Z,7.20
2019-01-12T15:20:41.293Z,7.20
2019-01-12T15:23:10.327Z,7.20
2019-01-12T15:25:41.931Z,7.30
2019-01-12T15:28:16.091Z,7.30
2019-01-12T15:30:45.555Z,7.30
2019-01-12T15:33:14.367Z,7.40
2019-01-12T15:35:44.217Z,7.40
2019-01-12T15:38:12.900Z,7.40
2019-01-12T15:40:41.694Z,7.40
2019-01-12T15:43:12.845Z,7.50
2019-01-12T15:45:41.574Z,7.50
2019-01-12T15:48:13.098Z,7.50
2019-01-12T15:50:49.770Z,7.50
2019-01-12T15:53:19.167Z,7.60
2019-01-12T15:55:47.947Z,7.60
2019-01-12T15:58:16.647Z,7.50
2019-01-12T16:00:45.390Z,7.50
2019-01-12T16:03:14.084Z,7.50
2019-01-12T16:05:42.760Z,7.50
2019-01-12T16:08:11.528Z,7.50
2019-01-12T16:10:40.243Z,7.50
2019-01-12T16:13:08.945Z,7.50
2019-01-12T16:15:37.699Z,7.50
2019-01-12T16:18:13.460Z,7.50
2019-01-12T16:20:42.975Z,7.40
2019-01-12T16:23:13.415Z,7.30
2019-01-12T16:25:43.864Z,7.30
2019-01-12T16:28:13.082Z,7.30
2019-01-12T16:30:41.952Z,7.30
2019-01-12T16:33:11.030Z,7.30
2019-01-12T16:35:40.075Z,7.30
2019-01-12T16:38:09.121Z,7.40
2019-01-12T16:40:39.742Z,7.40
2019-01-12T16:43:08.525Z,7.40
2019-01-12T16:45:37.873Z,7.40
2019-01-12T16:48:06.632Z,7.40
2019-01-12T16:50:35.325Z,7.40
2019-01-12T16:53:04.277Z,7.40
2019-01-12T16:55:33.102Z,7.50
2019-01-12T16:58:02.111Z,7.40
2019-01-12T17:00:31.201Z,7.40
2019-01-12T17:03:00.503Z,7.40
2019-01-12T17:05:29.307Z,7.40
2019-01-12T17:07:58.435Z,7.40
2019-01-12T17:10:27.278Z,7.40
2019-01-12T17:12:56.066Z,7.40
2019-01-12T17:15:24.874Z,7.40
2019-01-12T17:17:53.591Z,7.40
2019-01-12T17:20:24.383Z,7.40
2019-01-12T17:22:58.522Z,7.40
2019-01-12T17:25:27.346Z,7.40
2019-01-12T17:27:56.123Z,7.40
2019-01-12T17:30:24.900Z,7.40
2019-01-12T17:32:53.670Z,7.40
2019-01-12T17:35:22.409Z,7.40
2019-01-12T17:37:51.110Z,7.50
2019-01-12T17:40:19.950Z,7.50
2019-01-12T17:42:49.499Z,7.40
2019-01-12T17:45:20.091Z,7.40
2019-01-12T17:47:49.013Z,7.40
2019-01-12T17:50:19.389Z,7.40
2019-01-12T17:52:48.105Z,7.40
2019-01-12T17:55:18.531Z,7.40
2019-01-12T17:58:06.642Z,7.40
2019-01-12T18:00:49.491Z,7.40
2019-01-12T18:03:18.321Z,7.40
2019-01-12T18:05:47.235Z,7.40
2019-01-12T18:08:16.089Z,7.40
2019-01-12T18:10:44.952Z,7.40
2019-01-12T18:13:13.777Z,7.40
2019-01-12T18:15:42.559Z,7.40
2019-01-12T18:18:11.463Z,7.40
2019-01-12T18:20:40.364Z,7.30
2019-01-12T18:23:09.204Z,7.40
2019-01-12T18:25:38.143Z,7.40
2019-01-12T18:28:07.093Z,7.40
2019-01-12T18:30:36.611Z,7.40
2019-01-12T18:33:05.572Z,7.40
2019-01-12T18:35:34.451Z,7.40
2019-01-12T18:38:03.213Z,7.40
2019-01-12T18:40:32.029Z,7.40
2019-01-12T18:43:00.811Z,7.40
2019-01-12T18:45:30.016Z,7.40
2019-01-12T18:47:58.841Z,7.30
2019-01-12T18:50:27.718Z,7.30
2019-01-12T18:52:56.482Z,7.20
2019-01-12T18:55:25.316Z,7.00
2019-01-12T18:57:54.111Z,6.90
2019-01-12T19:00:27.673Z,6.80
2019-01-12T19:02:56.369Z,6.80
2019-01-12T19:05:25.214Z,6.60
2019-01-12T19:07:54.141Z,6.60
2019-01-12T19:10:22.998Z,6.70
2019-01-12T19:12:51.731Z,6.70
2019-01-12T19:15:22.990Z,6.80
2019-01-12T19:17:51.752Z,6.90
2019-01-12T19:20:20.532Z,6.90
2019-01-12T19:22:49.321Z,6.90
2019-01-12T19:25:18.151Z,6.90
2019-01-12T19:27:46.945Z,7.00
2019-01-12T19:30:17.871Z,6.90
2019-01-12T19:32:46.727Z,7.00
2019-01-12T19:35:15.401Z,7.00
2019-01-12T19:37:44.496Z,7.00
2019-01-12T19:40:15.323Z,7.00
2019-01-12T19:42:44.352Z,7.00
2019-01-12T19:45:13.788Z,7.10
2019-01-12T19:47:42.555Z,7.10
2019-01-12T19:50:16.532Z,7.10
2019-01-12T19:52:45.337Z,7.10
2019-01-12T19:55:14.182Z,7.10
2019-01-12T19:57:43.077Z,7.10
2019-01-12T20:00:14.530Z,7.10
2019-01-12T20:02:43.258Z,7.00
2019-01-12T20:05:12.163Z,7.00
2019-01-12T20:07:40.975Z,7.00
2019-01-12T20:10:11.493Z,6.90
2019-01-12T20:12:40.235Z,6.90
2019-01-12T20:15:11.127Z,6.70
2019-01-12T20:17:39.838Z,6.70
2019-01-12T20:20:10.228Z,6.60
2019-01-12T20:22:39.140Z,6.50
2019-01-12T20:25:10.098Z,6.50
2019-01-12T20:27:39.222Z,6.60
2019-01-12T20:30:16.075Z,6.60
2019-01-12T20:33:41.208Z,6.60
2019-01-12T20:37:15.467Z,6.60
2019-01-12T20:40:19.322Z,6.60
2019-01-12T20:43:23.219Z,6.60
2019-01-12T20:46:33.342Z,6.70
2019-01-12T20:49:25.580Z,6.90
2019-01-12T20:52:20.412Z,6.90
2019-01-12T20:55:20.595Z,6.90
2019-01-12T20:58:15.706Z,6.90
2019-01-12T21:01:29.442Z,7.00
2019-01-12T21:04:26.667Z,7.00
2019-01-12T21:07:49.078Z,7.00
2019-01-12T21:10:55.537Z,7.00
2019-01-12T21:13:59.146Z,7.10
2019-01-12T21:16:31.912Z,7.10
2019-01-12T21:19:00.719Z,7.20
2019-01-12T21:21:29.538Z,7.20
2019-01-12T21:23:58.435Z,7.20
2019-01-12T21:26:28.519Z,7.20
2019-01-12T21:28:57.380Z,7.20
2019-01-12T21:31:26.207Z,7.20
2019-01-12T21:33:55.130Z,7.10
2019-01-12T21:36:23.898Z,7.10
2019-01-12T21:38:52.655Z,7.10
2019-01-12T21:41:21.753Z,7.10
2019-01-12T21:43:50.542Z,7.10
2019-01-12T21:46:19.380Z,7.00
2019-01-12T21:48:48.062Z,7.00
2019-01-12T21:51:16.794Z,7.00
2019-01-12T21:53:48.017Z,7.00
2019-01-12T21:56:16.893Z,7.00
2019-01-12T21:58:45.765Z,7.10
2019-01-12T22:01:14.675Z,7.10
2019-01-12T22:03:43.724Z,7.10
2019-01-12T22:06:12.625Z,7.10
2019-01-12T22:08:41.450Z,7.20
2019-01-12T22:11:10.330Z,7.20
2019-01-12T22:13:39.378Z,7.30
2019-01-12T22:16:08.114Z,7.20
2019-01-12T22:18:36.875Z,7.20
2019-01-12T22:21:05.833Z,7.20
2019-01-12T22:23:34.738Z,7.20
2019-01-12T22:26:04.057Z,7.20
2019-01-12T22:28:32.898Z,7.10
2019-01-12T22:31:01.596Z,7.10
2019-01-12T22:33:33.306Z,7.10
2019-01-12T22:36:01.993Z,7.00
2019-01-12T22:38:30.702Z,7.00
2019-01-12T22:40:59.565Z,7.00
2019-01-12T22:43:28.362Z,7.00
2019-01-12T22:45:57.220Z,6.90
2019-01-12T22:48:26.099Z,6.90
2019-01-12T22:50:56.507Z,6.90
2019-01-12T22:53:28.388Z,6.90
2019-01-12T22:55:57.404Z,6.90
2019-01-12T22:58:26.163Z,6.90
2019-01-12T23:01:35.458Z,6.90
2019-01-12T23:04:04.679Z,6.90
2019-01-12T23:06:36.556Z,7.00
2019-01-12T23:09:11.098Z,7.00
2019-01-12T23:11:40.171Z,7.00
2019-01-12T23:14:10.333Z,7.00
2019-01-12T23:16:41.242Z,7.00
2019-01-12T23:19:09.797Z,7.00
2019-01-12T23:21:38.667Z,7.10
2019-01-12T23:24:07.476Z,7.10
2019-01-12T23:26:36.291Z,7.10
2019-01-12T23:29:05.523Z,7.20
2019-01-12T23:31:34.495Z,7.10
2019-01-12T23:34:03.483Z,7.10
2019-01-12T23:36:32.354Z,7.10
2019-01-12T23:39:01.062Z,7.20
2019-01-12T23:41:29.853Z,7.20
2019-01-12T23:43:58.634Z,7.20
2019-01-12T23:46:27.445Z,7.20
2019-01-12T23:48:56.177Z,7.10
2019-01-12T23:51:25.200Z,7.20
2019-01-12T23:53:53.986Z,7.10
2019-01-12T23:56:22.722Z,7.00
2019-01-12T23:58:51.507Z,7.00
